^^
Grace C. Lehan Memorial Weather Station Historical Data
Daily Summary for June 12, 2022 Units:  Both    English   Metric
Daily Weekly Monthly Yearly
  High: Low: Average:
Temperature: 84.5 °F /  29.2 °C 66.3 °F /  19.1 °C 74.9 °F /  23.8 °C
Dew Point: 67.4 °F /  19.7 °C 49 °F /  9.4 °C 56.3 °F /  13.5 °C
Humidity: 89% 30.4% 56%
Wind Speed: 5.1mph /  8.2km/h - 0.8mph /  1.3km/h
Wind Gust: 16mph /  25.7km/h - -
Wind- - West
Pressure: 30.01 in /  1016.1 hPa 29.88 in /  1011.7 hPa -
Precipitation: 0.00 in /  0 mm    
 
 
Tabular Data for June 12, 2022
Time Temperature Dew Point Pressure Wind Wind Speed Wind Gust Humidity Rainfall Rate (Hourly) solar
00:00 72 °F /  22.2 °C 66.6 °F /  19.2 °C 29.88in /  1011.7hPa Calm     83% 0.01in /  0.25mm 0 W/m2
00:09 71.9 °F /  22.2 °C 67.1 °F /  19.5 °C 29.88in /  1011.7hPa Calm     84.9% 0.00in /  0mm 0 W/m2
00:14 71.8 °F /  22.1 °C 67 °F /  19.4 °C 29.88in /  1011.7hPa Calm     85% 0.00in /  0mm 0 W/m2
00:19 71.6 °F /  22 °C 67.2 °F /  19.6 °C 29.88in /  1011.7hPa Calm     85.9% 0.00in /  0mm 0 W/m2
00:24 71.5 °F /  21.9 °C 67.1 °F /  19.5 °C 29.88in /  1011.7hPa Calm     86% 0.00in /  0mm 0 W/m2
00:29 71.3 °F /  21.8 °C 67 °F /  19.4 °C 29.88in /  1011.7hPa Calm     86.2% 0.00in /  0mm 0 W/m2
00:34 71.2 °F /  21.8 °C 67.1 °F /  19.5 °C 29.88in /  1011.7hPa Calm     87% 0.00in /  0mm 0 W/m2
00:39 71.1 °F /  21.7 °C 67.1 °F /  19.5 °C 29.88in /  1011.7hPa Calm     87% 0.00in /  0mm 0 W/m2
00:44 71.1 °F /  21.7 °C 67.3 °F /  19.6 °C 29.88in /  1011.7hPa Calm     87.8% 0.00in /  0mm 0 W/m2
00:49 71.1 °F /  21.7 °C 67.3 °F /  19.6 °C 29.88in /  1011.7hPa Calm     88% 0.00in /  0mm 0 W/m2
00:54 71 °F /  21.7 °C 67.3 °F /  19.6 °C 29.88in /  1011.7hPa Calm     88% 0.00in /  0mm 0 W/m2
00:59 71 °F /  21.7 °C 67.2 °F /  19.6 °C 29.88in /  1011.7hPa Calm     88% 0.00in /  0mm 0 W/m2
01:04 70.9 °F /  21.6 °C 67.2 °F /  19.6 °C 29.88in /  1011.7hPa Calm     88% 0.00in /  0mm 0 W/m2
01:09 70.9 °F /  21.6 °C 67.4 °F /  19.7 °C 29.88in /  1011.7hPa Calm     88.8% 0.00in /  0mm 0 W/m2
01:14 70.8 °F /  21.6 °C 67.4 °F /  19.7 °C 29.88in /  1011.7hPa Calm     89% 0.00in /  0mm 0 W/m2
01:19 70.8 °F /  21.6 °C 67.2 °F /  19.6 °C 29.88in /  1011.7hPa Calm     88.6% 0.00in /  0mm 0 W/m2
01:24 70.6 °F /  21.4 °C 66.9 °F /  19.4 °C 29.89in /  1012.1hPa Calm     88% 0.00in /  0mm 0 W/m2
01:29 70.5 °F /  21.4 °C 66.8 °F /  19.3 °C 29.88in /  1011.7hPa Calm     88% 0.00in /  0mm 0 W/m2
01:34 70.5 °F /  21.4 °C 66.7 °F /  19.3 °C 29.88in /  1011.7hPa Calm     88% 0.00in /  0mm 0 W/m2
01:39 70.3 °F /  21.3 °C 66.5 °F /  19.2 °C 29.89in /  1012.1hPa Calm     87.5% 0.00in /  0mm 0 W/m2
01:44 70.3 °F /  21.3 °C 66.6 °F /  19.2 °C 29.89in /  1012.1hPa Calm     88% 0.00in /  0mm 0 W/m2
01:49 70.3 °F /  21.3 °C 66.5 °F /  19.2 °C 29.88in /  1011.7hPa Calm     87.9% 0.00in /  0mm 0 W/m2
01:54 70.2 °F /  21.2 °C 66.2 °F /  19 °C 29.88in /  1011.7hPa Calm     87% 0.00in /  0mm 0 W/m2
01:59 70.1 °F /  21.2 °C 65.7 °F /  18.7 °C 29.89in /  1012.1hPa Calm     86% 0.00in /  0mm 0 W/m2
02:04 70 °F /  21.1 °C 65.3 °F /  18.5 °C 29.88in /  1011.7hPa Calm     85% 0.00in /  0mm 0 W/m2
02:09 70 °F /  21.1 °C 65.3 °F /  18.5 °C 29.88in /  1011.7hPa Calm     85% 0.00in /  0mm 0 W/m2
02:14 70 °F /  21.1 °C 65.3 °F /  18.5 °C 29.88in /  1011.7hPa Calm     85% 0.00in /  0mm 0 W/m2
02:19 69.9 °F /  21.1 °C 65 °F /  18.3 °C 29.88in /  1011.7hPa Calm   1mph /  1.6km/h 84.3% 0.00in /  0mm 0 W/m2
02:24 69.9 °F /  21.1 °C 64.8 °F /  18.2 °C 29.88in /  1011.7hPa Calm   1mph /  1.6km/h 84% 0.00in /  0mm 0 W/m2
02:29 69.8 °F /  21 °C 64.5 °F /  18.1 °C 29.88in /  1011.7hPa Calm   1mph /  1.6km/h 83.2% 0.00in /  0mm 0 W/m2
02:34 69.7 °F /  20.9 °C 64.3 °F /  17.9 °C 29.88in /  1011.7hPa Calm   1mph /  1.6km/h 83% 0.00in /  0mm 0 W/m2
02:39 69.7 °F /  20.9 °C 64.3 °F /  17.9 °C 29.88in /  1011.7hPa Calm     83% 0.00in /  0mm 0 W/m2
02:44 69.6 °F /  20.9 °C 64.2 °F /  17.9 °C 29.89in /  1012.1hPa NW 0.1mph /  0.2km/h 2mph /  3.2km/h 82.9% 0.00in /  0mm 0 W/m2
02:49 69.6 °F /  20.9 °C 64 °F /  17.8 °C 29.89in /  1012.1hPa NW 0.2mph /  0.3km/h 3mph /  4.8km/h 82.5% 0.00in /  0mm 0 W/m2
02:54 69.5 °F /  20.8 °C 63.8 °F /  17.7 °C 29.89in /  1012.1hPa Calm   3mph /  4.8km/h 82% 0.00in /  0mm 0 W/m2
02:59 69.4 °F /  20.8 °C 63.7 °F /  17.6 °C 29.89in /  1012.1hPa Calm   3mph /  4.8km/h 82% 0.00in /  0mm 0 W/m2
03:04 69.3 °F /  20.7 °C 63.6 °F /  17.6 °C 29.89in /  1012.1hPa Calm   3mph /  4.8km/h 82% 0.00in /  0mm 0 W/m2
03:09 69.2 °F /  20.7 °C 63.5 °F /  17.5 °C 29.89in /  1012.1hPa Calm     82% 0.00in /  0mm 0 W/m2
03:14 69.2 °F /  20.7 °C 63.3 °F /  17.4 °C 29.89in /  1012.1hPa Calm   1mph /  1.6km/h 81.6% 0.00in /  0mm 0 W/m2
03:19 69.1 °F /  20.6 °C 63 °F /  17.2 °C 29.89in /  1012.1hPa Calm   1mph /  1.6km/h 81% 0.00in /  0mm 0 W/m2
03:24 69 °F /  20.6 °C 63.1 °F /  17.3 °C 29.89in /  1012.1hPa Calm   1mph /  1.6km/h 81.5% 0.00in /  0mm 0 W/m2
03:29 69 °F /  20.6 °C 62.9 °F /  17.2 °C 29.89in /  1012.1hPa Calm   1mph /  1.6km/h 81% 0.00in /  0mm 0 W/m2
03:34 68.9 °F /  20.5 °C 62.9 °F /  17.2 °C 29.90in /  1012.4hPa Calm   1mph /  1.6km/h 81.2% 0.00in /  0mm 0 W/m2
03:39 68.8 °F /  20.4 °C 62.7 °F /  17.1 °C 29.90in /  1012.4hPa Calm     81% 0.00in /  0mm 0 W/m2
03:44 68.7 °F /  20.4 °C 62.6 °F /  17 °C 29.90in /  1012.4hPa NW 0.1mph /  0.2km/h 2mph /  3.2km/h 81% 0.00in /  0mm 0 W/m2
03:49 68.6 °F /  20.3 °C 62.6 °F /  17 °C 29.90in /  1012.4hPa Calm   2mph /  3.2km/h 81% 0.00in /  0mm 0 W/m2
03:54 68.6 °F /  20.3 °C 62.5 °F /  16.9 °C 29.90in /  1012.4hPa Calm   2mph /  3.2km/h 81% 0.00in /  0mm 0 W/m2
03:59 68.5 °F /  20.3 °C 62.4 °F /  16.9 °C 29.90in /  1012.4hPa Calm   2mph /  3.2km/h 80.8% 0.00in /  0mm 0 W/m2
04:00 68.5 °F /  20.3 °C 62.1 °F /  16.7 °C 29.90in /  1012.4hPa Calm   2mph /  3.2km/h 80% 0.00in /  0mm 0 W/m2
04:09 68.5 °F /  20.3 °C 62.1 °F /  16.7 °C 29.90in /  1012.4hPa Calm     80% 0.00in /  0mm 0 W/m2
04:14 68.5 °F /  20.3 °C 62.1 °F /  16.7 °C 29.90in /  1012.4hPa Calm     80% 0.00in /  0mm 0 W/m2
04:19 68.5 °F /  20.3 °C 62.1 °F /  16.7 °C 29.90in /  1012.4hPa Calm     80% 0.00in /  0mm 0 W/m2
04:24 68.5 °F /  20.3 °C 62.1 °F /  16.7 °C 29.90in /  1012.4hPa Calm     80% 0.00in /  0mm 0 W/m2
04:29 68.4 °F /  20.2 °C 62 °F /  16.7 °C 29.90in /  1012.4hPa Calm     80% 0.00in /  0mm 0 W/m2
04:34 68.3 °F /  20.2 °C 61.9 °F /  16.6 °C 29.90in /  1012.4hPa NW 0.1mph /  0.2km/h 2mph /  3.2km/h 80% 0.00in /  0mm 0 W/m2
04:39 68.3 °F /  20.2 °C 61.9 °F /  16.6 °C 29.91in /  1012.8hPa NW 0.1mph /  0.2km/h 3mph /  4.8km/h 80% 0.00in /  0mm 0 W/m2
04:44 68.2 °F /  20.1 °C 61.8 °F /  16.6 °C 29.91in /  1012.8hPa NW 0.2mph /  0.3km/h 3mph /  4.8km/h 80% 0.00in /  0mm 0 W/m2
04:49 68.1 °F /  20.1 °C 61.7 °F /  16.5 °C 29.91in /  1012.8hPa North 0.2mph /  0.3km/h 3mph /  4.8km/h 80% 0.00in /  0mm 0 W/m2
04:54 68.1 °F /  20.1 °C 61.7 °F /  16.5 °C 29.90in /  1012.4hPa Calm   3mph /  4.8km/h 80% 0.00in /  0mm 0 W/m2
04:59 68 °F /  20 °C 61.8 °F /  16.6 °C 29.90in /  1012.4hPa North 0.1mph /  0.2km/h 6mph /  9.7km/h 80.5% 0.00in /  0mm 0 W/m2
05:04 67.9 °F /  19.9 °C 61.8 °F /  16.6 °C 29.90in /  1012.4hPa North 0.1mph /  0.2km/h 6mph /  9.7km/h 80.8% 0.00in /  0mm 0 W/m2
05:09 67.8 °F /  19.9 °C 61.7 °F /  16.5 °C 29.90in /  1012.4hPa Calm   3mph /  4.8km/h 81% 0.00in /  0mm 0 W/m2
05:14 67.7 °F /  19.8 °C 61.6 °F /  16.4 °C 29.90in /  1012.4hPa North 0.1mph /  0.2km/h 3mph /  4.8km/h 81% 0.00in /  0mm 0 W/m2
05:19 67.6 °F /  19.8 °C 61.6 °F /  16.4 °C 29.90in /  1012.4hPa NNW 0.3mph /  0.5km/h 5mph /  8km/h 81% 0.00in /  0mm 0 W/m2
05:24 67.5 °F /  19.7 °C 61.4 °F /  16.3 °C 29.90in /  1012.4hPa NNW 0.1mph /  0.2km/h 5mph /  8km/h 81% 0.00in /  0mm 0 W/m2
05:29 67.3 °F /  19.6 °C 61.3 °F /  16.3 °C 29.91in /  1012.8hPa North 0.3mph /  0.5km/h 5mph /  8km/h 81% 0.00in /  0mm 0 W/m2
05:34 67.2 °F /  19.6 °C 61.2 °F /  16.2 °C 29.91in /  1012.8hPa NNE 0.1mph /  0.2km/h 5mph /  8km/h 81% 0.00in /  0mm 0 W/m2
05:39 67.1 °F /  19.5 °C 60.8 °F /  16 °C 29.91in /  1012.8hPa NNW 0.4mph /  0.6km/h 4mph /  6.4km/h 80.1% 0.00in /  0mm 0 W/m2
05:44 67 °F /  19.4 °C 60.7 °F /  15.9 °C 29.92in /  1013.1hPa Calm   4mph /  6.4km/h 80% 0.00in /  0mm 0 W/m2
05:49 66.9 °F /  19.4 °C 60.6 °F /  15.9 °C 29.92in /  1013.1hPa Calm   4mph /  6.4km/h 80% 0.00in /  0mm 0 W/m2
05:54 66.9 °F /  19.4 °C 60.5 °F /  15.8 °C 29.92in /  1013.1hPa Calm   4mph /  6.4km/h 80% 0.00in /  0mm 0 W/m2
05:59 66.8 °F /  19.3 °C 60.3 °F /  15.7 °C 29.92in /  1013.1hPa NW 0.1mph /  0.2km/h 4mph /  6.4km/h 79.5% 0.00in /  0mm 0 W/m2
06:04 66.7 °F /  19.3 °C 60 °F /  15.6 °C 29.92in /  1013.1hPa Calm   4mph /  6.4km/h 79% 0.00in /  0mm 0 W/m2
06:09 66.6 °F /  19.2 °C 59.9 °F /  15.5 °C 29.93in /  1013.4hPa Calm   1mph /  1.6km/h 79% 0.00in /  0mm 5 W/m2
06:14 66.5 °F /  19.2 °C 59.7 °F /  15.4 °C 29.92in /  1013.1hPa Calm   1mph /  1.6km/h 78.8% 0.00in /  0mm 7 W/m2
06:19 66.5 °F /  19.2 °C 59.8 °F /  15.4 °C 29.92in /  1013.1hPa Calm   1mph /  1.6km/h 79% 0.00in /  0mm 9 W/m2
06:24 66.4 °F /  19.1 °C 59.7 °F /  15.4 °C 29.92in /  1013.1hPa Calm   1mph /  1.6km/h 79% 0.00in /  0mm 9 W/m2
06:29 66.3 °F /  19.1 °C 59.6 °F /  15.3 °C 29.93in /  1013.4hPa Calm   3mph /  4.8km/h 79% 0.00in /  0mm 26 W/m2
06:34 66.3 °F /  19.1 °C 59.6 °F /  15.3 °C 29.93in /  1013.4hPa Calm   3mph /  4.8km/h 79% 0.00in /  0mm 42 W/m2
06:39 66.3 °F /  19.1 °C 59.6 °F /  15.3 °C 29.93in /  1013.4hPa Calm   3mph /  4.8km/h 79% 0.00in /  0mm 54 W/m2
06:44 66.3 °F /  19.1 °C 59.3 °F /  15.2 °C 29.93in /  1013.4hPa NW 0.3mph /  0.5km/h 5mph /  8km/h 78.1% 0.00in /  0mm 54 W/m2
06:49 66.4 °F /  19.1 °C 59.4 °F /  15.2 °C 29.93in /  1013.4hPa Calm   5mph /  8km/h 78% 0.00in /  0mm 42 W/m2
06:54 66.5 °F /  19.2 °C 59.3 °F /  15.2 °C 29.93in /  1013.4hPa NW 0.1mph /  0.2km/h 5mph /  8km/h 77.7% 0.00in /  0mm 77 W/m2
06:59 66.7 °F /  19.3 °C 59.3 °F /  15.2 °C 29.94in /  1013.8hPa NNW 0.3mph /  0.5km/h 5mph /  8km/h 77.2% 0.00in /  0mm 214 W/m2
07:04 67.2 °F /  19.6 °C 59.6 °F /  15.3 °C 29.94in /  1013.8hPa NNW 0.1mph /  0.2km/h 5mph /  8km/h 76.5% 0.00in /  0mm 267 W/m2
07:09 68.1 °F /  20.1 °C 59.8 °F /  15.4 °C 29.94in /  1013.8hPa NW 0.6mph /  1km/h 9mph /  14.5km/h 74.9% 0.00in /  0mm 267 W/m2
07:14 68.8 °F /  20.4 °C 60 °F /  15.6 °C 29.94in /  1013.8hPa NW 0.2mph /  0.3km/h 9mph /  14.5km/h 73.6% 0.00in /  0mm 188 W/m2
07:19 69.3 °F /  20.7 °C 59.5 °F /  15.3 °C 29.94in /  1013.8hPa WNW 0.3mph /  0.5km/h 9mph /  14.5km/h 71.1% 0.00in /  0mm 141 W/m2
07:24 69.3 °F /  20.7 °C 59.2 °F /  15.1 °C 29.94in /  1013.8hPa NNW 0.8mph /  1.3km/h 9mph /  14.5km/h 70.3% 0.00in /  0mm 139 W/m2
07:29 69.2 °F /  20.7 °C 59 °F /  15 °C 29.94in /  1013.8hPa NNW 0.3mph /  0.5km/h 9mph /  14.5km/h 70% 0.00in /  0mm 206 W/m2
07:34 69.1 °F /  20.6 °C 59.3 °F /  15.2 °C 29.94in /  1013.8hPa NNW 1.5mph /  2.4km/h 9mph /  14.5km/h 70.9% 0.00in /  0mm 241 W/m2
07:39 69.2 °F /  20.7 °C 59.2 °F /  15.1 °C 29.94in /  1013.8hPa NW 0.3mph /  0.5km/h 9mph /  14.5km/h 70.6% 0.00in /  0mm 241 W/m2
07:44 69.4 °F /  20.8 °C 59.1 °F /  15.1 °C 29.95in /  1014.1hPa NNW 1.3mph /  2.1km/h 9mph /  14.5km/h 69.6% 0.00in /  0mm 341 W/m2
07:49 70 °F /  21.1 °C 59.6 °F /  15.3 °C 29.94in /  1013.8hPa Calm   9mph /  14.5km/h 69.6% 0.00in /  0mm 343 W/m2
07:54 70.9 °F /  21.6 °C 60.1 °F /  15.6 °C 29.95in /  1014.1hPa ENE 0.3mph /  0.5km/h 9mph /  14.5km/h 68.8% 0.00in /  0mm 357 W/m2
07:59 71.7 °F /  22.1 °C 59.6 °F /  15.3 °C 29.95in /  1014.1hPa NW 2.1mph /  3.4km/h 13mph /  20.9km/h 65.8% 0.00in /  0mm 381 W/m2
08:00 71.9 °F /  22.2 °C 59.1 °F /  15.1 °C 29.95in /  1014.1hPa Calm   13mph /  20.9km/h 64% 0.00in /  0mm 381 W/m2
08:09 72.7 °F /  22.6 °C 59.8 °F /  15.4 °C 29.96in /  1014.4hPa North 0.7mph /  1.1km/h 4mph /  6.4km/h 63.9% 0.00in /  0mm 427 W/m2
08:14 73.1 °F /  22.8 °C 59.2 °F /  15.1 °C 29.96in /  1014.4hPa NE 1.1mph /  1.8km/h 9mph /  14.5km/h 61.7% 0.00in /  0mm 432 W/m2
08:19 73.4 °F /  23 °C 59 °F /  15 °C 29.95in /  1014.1hPa NNW 1.2mph /  1.9km/h 9mph /  14.5km/h 60.6% 0.00in /  0mm 441 W/m2
08:24 73.7 °F /  23.2 °C 58.9 °F /  14.9 °C 29.95in /  1014.1hPa North 2.2mph /  3.5km/h 10mph /  16.1km/h 59.9% 0.00in /  0mm 434 W/m2
08:29 73.9 °F /  23.3 °C 58.8 °F /  14.9 °C 29.95in /  1014.1hPa NW 1.4mph /  2.3km/h 12mph /  19.3km/h 59.1% 0.00in /  0mm 471 W/m2
08:34 74.1 °F /  23.4 °C 58.5 °F /  14.7 °C 29.96in /  1014.4hPa NNW 2.5mph /  4km/h 13mph /  20.9km/h 58.2% 0.00in /  0mm 512 W/m2
08:39 74.3 °F /  23.5 °C 58.1 °F /  14.5 °C 29.96in /  1014.4hPa NW 1.8mph /  2.9km/h 13mph /  20.9km/h 57.2% 0.00in /  0mm 512 W/m2
08:44 74.3 °F /  23.5 °C 58 °F /  14.4 °C 29.96in /  1014.4hPa NNE 1mph /  1.6km/h 13mph /  20.9km/h 56.7% 0.00in /  0mm 524 W/m2
08:49 74.5 °F /  23.6 °C 58.5 °F /  14.7 °C 29.96in /  1014.4hPa NW 1.7mph /  2.7km/h 13mph /  20.9km/h 57.5% 0.00in /  0mm 533 W/m2
08:54 74.9 °F /  23.8 °C 58.8 °F /  14.9 °C 29.97in /  1014.8hPa NW 2.2mph /  3.5km/h 13mph /  20.9km/h 57.3% 0.00in /  0mm 545 W/m2
08:59 75.4 °F /  24.1 °C 58.5 °F /  14.7 °C 29.97in /  1014.8hPa NNW 1.4mph /  2.3km/h 13mph /  20.9km/h 55.8% 0.00in /  0mm 571 W/m2
09:04 75.6 °F /  24.2 °C 57.9 °F /  14.4 °C 29.96in /  1014.4hPa NE 1.1mph /  1.8km/h 13mph /  20.9km/h 54.1% 0.00in /  0mm 580 W/m2
09:09 75.5 °F /  24.2 °C 58 °F /  14.4 °C 29.96in /  1014.4hPa ENE 1.5mph /  2.4km/h 7mph /  11.3km/h 54.5% 0.00in /  0mm 592 W/m2
09:14 75.4 °F /  24.1 °C 57.2 °F /  14 °C 29.96in /  1014.4hPa ENE 1.3mph /  2.1km/h 9mph /  14.5km/h 53.2% 0.00in /  0mm 619 W/m2
09:19 75.2 °F /  24 °C 58 °F /  14.4 °C 29.97in /  1014.8hPa NE 0.2mph /  0.3km/h 9mph /  14.5km/h 55.1% 0.00in /  0mm 628 W/m2
09:24 75.9 °F /  24.4 °C 59.3 °F /  15.2 °C 29.97in /  1014.8hPa NNW 1.1mph /  1.8km/h 9mph /  14.5km/h 56.4% 0.00in /  0mm 645 W/m2
09:29 76.9 °F /  24.9 °C 59.5 °F /  15.3 °C 29.97in /  1014.8hPa NW 1.7mph /  2.7km/h 9mph /  14.5km/h 54.9% 0.00in /  0mm 657 W/m2
09:34 77.7 °F /  25.4 °C 59 °F /  15 °C 29.97in /  1014.8hPa NW 0.7mph /  1.1km/h 9mph /  14.5km/h 52.6% 0.00in /  0mm 677 W/m2
09:39 78.2 °F /  25.7 °C 59.3 °F /  15.2 °C 29.97in /  1014.8hPa NW 2.7mph /  4.3km/h 12mph /  19.3km/h 52.2% 0.00in /  0mm 687 W/m2
09:44 78.5 °F /  25.8 °C 58.6 °F /  14.8 °C 29.96in /  1014.4hPa NW 1mph /  1.6km/h 12mph /  19.3km/h 50.5% 0.00in /  0mm 729 W/m2
09:49 78.6 °F /  25.9 °C 58.7 °F /  14.8 °C 29.96in /  1014.4hPa NNE 2.2mph /  3.5km/h 12mph /  19.3km/h 50.5% 0.00in /  0mm 742 W/m2
09:54 78.5 °F /  25.8 °C 58.3 °F /  14.6 °C 29.96in /  1014.4hPa NW 2.2mph /  3.5km/h 14mph /  22.5km/h 49.9% 0.00in /  0mm 717 W/m2
09:59 78.4 °F /  25.8 °C 57.9 °F /  14.4 °C 29.96in /  1014.4hPa NNW 2.2mph /  3.5km/h 14mph /  22.5km/h 49.5% 0.00in /  0mm 638 W/m2
10:04 77.7 °F /  25.4 °C 57.4 °F /  14.1 °C 29.97in /  1014.8hPa NNW 1.5mph /  2.4km/h 14mph /  22.5km/h 49.7% 0.00in /  0mm 677 W/m2
10:09 77.1 °F /  25.1 °C 56.3 °F /  13.5 °C 29.97in /  1014.8hPa NW 2.2mph /  3.5km/h 11mph /  17.7km/h 48.6% 0.00in /  0mm 671 W/m2
10:14 77 °F /  25 °C 56.7 °F /  13.7 °C 29.96in /  1014.4hPa North 1.2mph /  1.9km/h 11mph /  17.7km/h 49.5% 0.00in /  0mm 842 W/m2
10:19 77.3 °F /  25.2 °C 56.8 °F /  13.8 °C 29.96in /  1014.4hPa NNW 2.5mph /  4km/h 11mph /  17.7km/h 49.2% 0.00in /  0mm 846 W/m2
10:24 77.6 °F /  25.3 °C 56.3 °F /  13.5 °C 29.96in /  1014.4hPa North 1.3mph /  2.1km/h 11mph /  17.7km/h 47.9% 0.00in /  0mm 807 W/m2
10:29 77.7 °F /  25.4 °C 56.9 °F /  13.8 °C 29.96in /  1014.4hPa ENE 0.4mph /  0.6km/h 11mph /  17.7km/h 48.7% 0.00in /  0mm 849 W/m2
10:34 77.9 °F /  25.5 °C 56.7 °F /  13.7 °C 29.96in /  1014.4hPa ENE 2.3mph /  3.7km/h 11mph /  17.7km/h 48% 0.00in /  0mm 851 W/m2
10:39 78.1 °F /  25.6 °C 57.2 °F /  14 °C 29.95in /  1014.1hPa NNW 1.2mph /  1.9km/h 9mph /  14.5km/h 48.7% 0.00in /  0mm 956 W/m2
10:44 78.3 °F /  25.7 °C 57.1 °F /  13.9 °C 29.96in /  1014.4hPa North 1.4mph /  2.3km/h 16mph /  25.7km/h 48% 0.00in /  0mm 889 W/m2
10:49 78.2 °F /  25.7 °C 57.6 °F /  14.2 °C 29.96in /  1014.4hPa North 2mph /  3.2km/h 16mph /  25.7km/h 49.1% 0.00in /  0mm 963 W/m2
10:54 78.4 °F /  25.8 °C 56.9 °F /  13.8 °C 29.95in /  1014.1hPa NNW 1.9mph /  3.1km/h 16mph /  25.7km/h 47.7% 0.00in /  0mm 933 W/m2
10:59 78.4 °F /  25.8 °C 56.9 °F /  13.8 °C 29.95in /  1014.1hPa NNW 0.7mph /  1.1km/h 16mph /  25.7km/h 47.6% 0.00in /  0mm 849 W/m2
11:04 78.6 °F /  25.9 °C 57.4 °F /  14.1 °C 29.95in /  1014.1hPa NNE 2.2mph /  3.5km/h 16mph /  25.7km/h 48.3% 0.00in /  0mm 889 W/m2
11:09 79 °F /  26.1 °C 57.8 °F /  14.3 °C 29.95in /  1014.1hPa NE 2.1mph /  3.4km/h 11mph /  17.7km/h 48.2% 0.00in /  0mm 914 W/m2
11:14 79.3 °F /  26.3 °C 57.2 °F /  14 °C 29.95in /  1014.1hPa NNW 2.5mph /  4km/h 11mph /  17.7km/h 46.8% 0.00in /  0mm 320 W/m2
11:19 79 °F /  26.1 °C 57 °F /  13.9 °C 29.95in /  1014.1hPa NE 1.2mph /  1.9km/h 11mph /  17.7km/h 46.8% 0.00in /  0mm 320 W/m2
11:24 78.9 °F /  26.1 °C 56.8 °F /  13.8 °C 29.95in /  1014.1hPa North 1.1mph /  1.8km/h 11mph /  17.7km/h 46.7% 0.00in /  0mm 993 W/m2
11:29 79.3 °F /  26.3 °C 56.6 °F /  13.7 °C 29.95in /  1014.1hPa NNE 1.3mph /  2.1km/h 11mph /  17.7km/h 45.7% 0.00in /  0mm 947 W/m2
11:34 79.7 °F /  26.5 °C 56.5 °F /  13.6 °C 29.95in /  1014.1hPa NNW 0.8mph /  1.3km/h 11mph /  17.7km/h 45% 0.00in /  0mm 1025 W/m2
11:39 80 °F /  26.7 °C 56.7 °F /  13.7 °C 29.95in /  1014.1hPa NW 1.5mph /  2.4km/h 10mph /  16.1km/h 45% 0.00in /  0mm 1025 W/m2
11:44 80.5 °F /  26.9 °C 56.8 °F /  13.8 °C 29.95in /  1014.1hPa NNW 1.6mph /  2.6km/h 10mph /  16.1km/h 44.4% 0.00in /  0mm 1002 W/m2
11:49 81 °F /  27.2 °C 56.7 °F /  13.7 °C 29.95in /  1014.1hPa NW 2mph /  3.2km/h 10mph /  16.1km/h 43.4% 0.00in /  0mm 1034 W/m2
11:54 81.3 °F /  27.4 °C 57.2 °F /  14 °C 29.95in /  1014.1hPa NW 0.4mph /  0.6km/h 10mph /  16.1km/h 43.8% 0.00in /  0mm 928 W/m2
11:59 81.6 °F /  27.6 °C 56.4 °F /  13.6 °C 29.95in /  1014.1hPa NW 3.1mph /  5km/h 10mph /  16.1km/h 42.1% 0.00in /  0mm 944 W/m2
12:00 81.7 °F /  27.6 °C 55.1 °F /  12.8 °C 29.94in /  1013.8hPa Calm   10mph /  16.1km/h 40% 0.00in /  0mm 923 W/m2
12:09 81.7 °F /  27.6 °C 54.1 °F /  12.3 °C 29.94in /  1013.8hPa NW 4.3mph /  6.9km/h 12mph /  19.3km/h 38.7% 0.00in /  0mm 940 W/m2
12:14 81.5 °F /  27.5 °C 54.7 °F /  12.6 °C 29.94in /  1013.8hPa North 1.1mph /  1.8km/h 12mph /  19.3km/h 39.7% 0.00in /  0mm 944 W/m2
12:19 81.2 °F /  27.3 °C 54.4 °F /  12.4 °C 29.94in /  1013.8hPa ENE 1.3mph /  2.1km/h 12mph /  19.3km/h 39.6% 0.00in /  0mm 944 W/m2
12:24 80.7 °F /  27.1 °C 54.3 °F /  12.4 °C 29.94in /  1013.8hPa NE 1mph /  1.6km/h 12mph /  19.3km/h 40.2% 0.00in /  0mm 946 W/m2
12:29 80.6 °F /  27 °C 53.5 °F /  11.9 °C 29.94in /  1013.8hPa NNW 2mph /  3.2km/h 12mph /  19.3km/h 39.2% 0.00in /  0mm 953 W/m2
12:34 80.5 °F /  26.9 °C 53.4 °F /  11.9 °C 29.94in /  1013.8hPa ENE 1.4mph /  2.3km/h 12mph /  19.3km/h 39.1% 0.00in /  0mm 954 W/m2
12:39 80.6 °F /  27 °C 53.5 °F /  11.9 °C 29.94in /  1013.8hPa NE 0.8mph /  1.3km/h 7mph /  11.3km/h 39.2% 0.00in /  0mm 958 W/m2
12:44 80.7 °F /  27.1 °C 53.2 °F /  11.8 °C 29.94in /  1013.8hPa NE 1.3mph /  2.1km/h 7mph /  11.3km/h 38.7% 0.00in /  0mm 958 W/m2
12:49 80.8 °F /  27.1 °C 52.9 °F /  11.6 °C 29.94in /  1013.8hPa North 1.4mph /  2.3km/h 7mph /  11.3km/h 38.1% 0.00in /  0mm 958 W/m2
12:54 81.1 °F /  27.3 °C 52.9 °F /  11.6 °C 29.94in /  1013.8hPa NE 2.6mph /  4.2km/h 10mph /  16.1km/h 37.7% 0.00in /  0mm 960 W/m2
12:59 81.4 °F /  27.4 °C 53.2 °F /  11.8 °C 29.94in /  1013.8hPa North 1mph /  1.6km/h 10mph /  16.1km/h 37.8% 0.00in /  0mm 962 W/m2
13:04 81.7 °F /  27.6 °C 53.7 °F /  12.1 °C 29.93in /  1013.4hPa East 1.5mph /  2.4km/h 10mph /  16.1km/h 38.1% 0.00in /  0mm 962 W/m2
13:09 81.6 °F /  27.6 °C 53.1 °F /  11.7 °C 29.93in /  1013.4hPa North 1.9mph /  3.1km/h 10mph /  16.1km/h 37.5% 0.00in /  0mm 960 W/m2
13:14 81.9 °F /  27.7 °C 54.8 °F /  12.7 °C 29.93in /  1013.4hPa NNW 1.8mph /  2.9km/h 10mph /  16.1km/h 39.3% 0.00in /  0mm 962 W/m2
13:18 82.3 °F /  27.9 °C 54.2 °F /  12.3 °C 29.93in /  1013.4hPa NW 0.4mph /  0.6km/h 10mph /  16.1km/h 38.1% 0.00in /  0mm 958 W/m2
13:24 82.6 °F /  28.1 °C 53.7 °F /  12.1 °C 29.93in /  1013.4hPa North 1.5mph /  2.4km/h 13mph /  20.9km/h 36.9% 0.00in /  0mm 956 W/m2
13:29 82.7 °F /  28.2 °C 53.4 °F /  11.9 °C 29.93in /  1013.4hPa ENE 0.3mph /  0.5km/h 13mph /  20.9km/h 36.5% 0.00in /  0mm 956 W/m2
13:34 82.6 °F /  28.1 °C 52.8 °F /  11.6 °C 29.93in /  1013.4hPa NE 3.2mph /  5.1km/h 13mph /  20.9km/h 35.8% 0.00in /  0mm 954 W/m2
13:39 82.2 °F /  27.9 °C 52.3 °F /  11.3 °C 29.93in /  1013.4hPa NNE 1.4mph /  2.3km/h 8mph /  12.9km/h 35.5% 0.00in /  0mm 951 W/m2
13:44 82.3 °F /  27.9 °C 53.1 °F /  11.7 °C 29.93in /  1013.4hPa NNE 2mph /  3.2km/h 11mph /  17.7km/h 36.5% 0.00in /  0mm 949 W/m2
13:49 82.7 °F /  28.2 °C 53 °F /  11.7 °C 29.93in /  1013.4hPa NW 1.5mph /  2.4km/h 11mph /  17.7km/h 35.9% 0.00in /  0mm 946 W/m2
13:54 83.1 °F /  28.4 °C 52.9 °F /  11.6 °C 29.93in /  1013.4hPa NNW 1mph /  1.6km/h 11mph /  17.7km/h 35.3% 0.00in /  0mm 939 W/m2
13:59 83.4 °F /  28.6 °C 52.8 °F /  11.6 °C 29.93in /  1013.4hPa NNW 0.6mph /  1km/h 11mph /  17.7km/h 34.9% 0.00in /  0mm 937 W/m2
14:04 83.5 °F /  28.6 °C 51.8 °F /  11 °C 29.93in /  1013.4hPa NW 3.8mph /  6.1km/h 11mph /  17.7km/h 33.5% 0.00in /  0mm 932 W/m2
14:09 83.5 °F /  28.6 °C 51.8 °F /  11 °C 29.93in /  1013.4hPa NNW 0.9mph /  1.4km/h 10mph /  16.1km/h 33.6% 0.00in /  0mm 937 W/m2
14:14 83.8 °F /  28.8 °C 51.4 °F /  10.8 °C 29.93in /  1013.4hPa NW 2.4mph /  3.9km/h 10mph /  16.1km/h 32.7% 0.00in /  0mm 928 W/m2
14:19 84 °F /  28.9 °C 51.2 °F /  10.7 °C 29.93in /  1013.4hPa NNW 0.9mph /  1.4km/h 10mph /  16.1km/h 32.3% 0.00in /  0mm 919 W/m2
14:24 84 °F /  28.9 °C 51.4 °F /  10.8 °C 29.93in /  1013.4hPa NW 2.8mph /  4.5km/h 15mph /  24.1km/h 32.5% 0.00in /  0mm 914 W/m2
14:29 83.8 °F /  28.8 °C 51.2 °F /  10.7 °C 29.93in /  1013.4hPa WNW 5.1mph /  8.2km/h 15mph /  24.1km/h 32.4% 0.00in /  0mm 905 W/m2
14:34 83.8 °F /  28.8 °C 51.1 °F /  10.6 °C 29.92in /  1013.1hPa NW 1.6mph /  2.6km/h 15mph /  24.1km/h 32.2% 0.00in /  0mm 911 W/m2
14:39 84.2 °F /  29 °C 51.3 °F /  10.7 °C 29.92in /  1013.1hPa WNW 0.3mph /  0.5km/h 7mph /  11.3km/h 32.1% 0.00in /  0mm 898 W/m2
14:44 84.5 °F /  29.2 °C 50.8 °F /  10.4 °C 29.93in /  1013.4hPa NW 1.7mph /  2.7km/h 11mph /  17.7km/h 31.3% 0.00in /  0mm 879 W/m2
14:49 84.5 °F /  29.2 °C 50.3 °F /  10.2 °C 29.93in /  1013.4hPa North 3mph /  4.8km/h 11mph /  17.7km/h 30.7% 0.00in /  0mm 877 W/m2
14:54 84.1 °F /  28.9 °C 50.1 °F /  10.1 °C 29.92in /  1013.1hPa ENE 2.6mph /  4.2km/h 11mph /  17.7km/h 30.8% 0.00in /  0mm 854 W/m2
14:59 83.9 °F /  28.8 °C 51 °F /  10.6 °C 29.92in /  1013.1hPa NNE 1.4mph /  2.3km/h 11mph /  17.7km/h 32.1% 0.00in /  0mm 874 W/m2
15:04 83.9 °F /  28.8 °C 49.5 °F /  9.7 °C 29.92in /  1013.1hPa ENE 1mph /  1.6km/h 11mph /  17.7km/h 30.4% 0.00in /  0mm 817 W/m2
15:09 83.6 °F /  28.7 °C 49.3 °F /  9.6 °C 29.92in /  1013.1hPa NE 1.5mph /  2.4km/h 11mph /  17.7km/h 30.5% 0.00in /  0mm 905 W/m2
15:14 83.7 °F /  28.7 °C 50.5 °F /  10.3 °C 29.92in /  1013.1hPa ENE 0.8mph /  1.3km/h 11mph /  17.7km/h 31.8% 0.00in /  0mm 896 W/m2
15:19 84.2 °F /  29 °C 50.6 °F /  10.3 °C 29.92in /  1013.1hPa NNW 2.6mph /  4.2km/h 12mph /  19.3km/h 31.4% 0.00in /  0mm 863 W/m2
15:24 84.3 °F /  29.1 °C 51.1 °F /  10.6 °C 29.92in /  1013.1hPa NW 1.5mph /  2.4km/h 14mph /  22.5km/h 31.8% 0.00in /  0mm 638 W/m2
15:29 84.2 °F /  29 °C 51.3 °F /  10.7 °C 29.92in /  1013.1hPa NW 3.2mph /  5.1km/h 14mph /  22.5km/h 32.2% 0.00in /  0mm 717 W/m2
15:34 84 °F /  28.9 °C 50.7 °F /  10.4 °C 29.92in /  1013.1hPa WNW 5mph /  8km/h 15mph /  24.1km/h 31.7% 0.00in /  0mm 696 W/m2
15:39 83.7 °F /  28.7 °C 50.4 °F /  10.2 °C 29.92in /  1013.1hPa NNW 1.2mph /  1.9km/h 15mph /  24.1km/h 31.6% 0.00in /  0mm 786 W/m2
15:44 83.5 °F /  28.6 °C 50.1 °F /  10.1 °C 29.92in /  1013.1hPa ENE 1.3mph /  2.1km/h 15mph /  24.1km/h 31.5% 0.00in /  0mm 615 W/m2
15:49 83.3 °F /  28.5 °C 51 °F /  10.6 °C 29.92in /  1013.1hPa NW 1.5mph /  2.4km/h 15mph /  24.1km/h 32.7% 0.00in /  0mm 636 W/m2
15:54 83.4 °F /  28.6 °C 50.3 °F /  10.2 °C 29.92in /  1013.1hPa NE 1mph /  1.6km/h 15mph /  24.1km/h 31.8% 0.00in /  0mm 749 W/m2
15:59 83.7 °F /  28.7 °C 51.7 °F /  10.9 °C 29.92in /  1013.1hPa West 1.9mph /  3.1km/h 15mph /  24.1km/h 33.2% 0.00in /  0mm 784 W/m2
16:09 84.3 °F /  29.1 °C 50.7 °F /  10.4 °C 29.92in /  1013.1hPa NNW 1.3mph /  2.1km/h 6mph /  9.7km/h 31.3% 0.00in /  0mm 633 W/m2
16:14 84 °F /  28.9 °C 50.9 °F /  10.5 °C 29.92in /  1013.1hPa NW 0.9mph /  1.4km/h 6mph /  9.7km/h 31.8% 0.00in /  0mm 454 W/m2
16:19 83.8 °F /  28.8 °C 50.8 °F /  10.4 °C 29.92in /  1013.1hPa WNW 3.9mph /  6.3km/h 14mph /  22.5km/h 32% 0.00in /  0mm 183 W/m2
16:24 83.5 °F /  28.6 °C 50.8 °F /  10.4 °C 29.92in /  1013.1hPa WNW 1.4mph /  2.3km/h 14mph /  22.5km/h 32.2% 0.00in /  0mm 165 W/m2
16:29 83.5 °F /  28.6 °C 50.6 °F /  10.3 °C 29.92in /  1013.1hPa NW 4.4mph /  7.1km/h 14mph /  22.5km/h 32% 0.00in /  0mm 197 W/m2
16:34 83.4 °F /  28.6 °C 50.4 °F /  10.2 °C 29.92in /  1013.1hPa NW 3.5mph /  5.6km/h 14mph /  22.5km/h 32% 0.00in /  0mm 199 W/m2
16:39 83.2 °F /  28.4 °C 49.6 °F /  9.8 °C 29.92in /  1013.1hPa NW 2mph /  3.2km/h 12mph /  19.3km/h 31.2% 0.00in /  0mm 174 W/m2
16:44 83.2 °F /  28.4 °C 50.5 °F /  10.3 °C 29.92in /  1013.1hPa WNW 1.6mph /  2.6km/h 12mph /  19.3km/h 32.2% 0.00in /  0mm 155 W/m2
16:49 83.2 °F /  28.4 °C 50.5 °F /  10.3 °C 29.92in /  1013.1hPa NW 1.8mph /  2.9km/h 12mph /  19.3km/h 32.2% 0.00in /  0mm 142 W/m2
16:54 83.2 °F /  28.4 °C 50.5 °F /  10.3 °C 29.93in /  1013.4hPa NNW 1.5mph /  2.4km/h 12mph /  19.3km/h 32.3% 0.00in /  0mm 125 W/m2
16:59 82.8 °F /  28.2 °C 49.5 °F /  9.7 °C 29.93in /  1013.4hPa NNW 3.4mph /  5.5km/h 12mph /  19.3km/h 31.5% 0.00in /  0mm 130 W/m2
17:04 82.3 °F /  27.9 °C 50.1 °F /  10.1 °C 29.93in /  1013.4hPa NW 1.5mph /  2.4km/h 12mph /  19.3km/h 32.7% 0.00in /  0mm 130 W/m2
17:09 82 °F /  27.8 °C 49 °F /  9.4 °C 29.93in /  1013.4hPa WNW 3.2mph /  5.1km/h 12mph /  19.3km/h 31.6% 0.00in /  0mm 128 W/m2
17:14 81.9 °F /  27.7 °C 49.8 °F /  9.9 °C 29.93in /  1013.4hPa WNW 1mph /  1.6km/h 12mph /  19.3km/h 32.7% 0.00in /  0mm 127 W/m2
17:19 81.9 °F /  27.7 °C 49.7 °F /  9.8 °C 29.93in /  1013.4hPa NW 0.6mph /  1km/h 12mph /  19.3km/h 32.6% 0.00in /  0mm 121 W/m2
17:24 81.9 °F /  27.7 °C 50 °F /  10 °C 29.93in /  1013.4hPa NNW 1.5mph /  2.4km/h 12mph /  19.3km/h 33% 0.00in /  0mm 135 W/m2
17:29 81.7 °F /  27.6 °C 50.3 °F /  10.2 °C 29.94in /  1013.8hPa NW 2.3mph /  3.7km/h 12mph /  19.3km/h 33.7% 0.00in /  0mm 135 W/m2
17:34 81.6 °F /  27.6 °C 50.7 °F /  10.4 °C 29.94in /  1013.8hPa WNW 2.9mph /  4.7km/h 12mph /  19.3km/h 34.2% 0.00in /  0mm 120 W/m2
17:39 81.4 °F /  27.4 °C 50.6 °F /  10.3 °C 29.94in /  1013.8hPa NW 3mph /  4.8km/h 12mph /  19.3km/h 34.3% 0.00in /  0mm 97 W/m2
17:44 81.2 °F /  27.3 °C 50 °F /  10 °C 29.94in /  1013.8hPa NW 1.8mph /  2.9km/h 12mph /  19.3km/h 33.7% 0.00in /  0mm 63 W/m2
17:49 80.9 °F /  27.2 °C 50.1 °F /  10.1 °C 29.94in /  1013.8hPa NW 1.5mph /  2.4km/h 12mph /  19.3km/h 34.2% 0.00in /  0mm 77 W/m2
17:54 80.6 °F /  27 °C 49.8 °F /  9.9 °C 29.94in /  1013.8hPa WNW 1.4mph /  2.3km/h 12mph /  19.3km/h 34.1% 0.00in /  0mm 84 W/m2
17:59 80.4 °F /  26.9 °C 50.4 °F /  10.2 °C 29.94in /  1013.8hPa NW 0.2mph /  0.3km/h 12mph /  19.3km/h 35.2% 0.00in /  0mm 93 W/m2
18:04 80.3 °F /  26.8 °C 50.4 °F /  10.2 °C 29.95in /  1014.1hPa NW 1mph /  1.6km/h 12mph /  19.3km/h 35.3% 0.00in /  0mm 97 W/m2
18:09 80.3 °F /  26.8 °C 49.9 °F /  9.9 °C 29.95in /  1014.1hPa NW 1.9mph /  3.1km/h 9mph /  14.5km/h 34.6% 0.00in /  0mm 95 W/m2
18:14 80.2 °F /  26.8 °C 49.8 °F /  9.9 °C 29.95in /  1014.1hPa NNW 1.1mph /  1.8km/h 9mph /  14.5km/h 34.6% 0.00in /  0mm 98 W/m2
18:19 80.1 °F /  26.7 °C 50.6 °F /  10.3 °C 29.95in /  1014.1hPa NNW 1.2mph /  1.9km/h 9mph /  14.5km/h 35.8% 0.00in /  0mm 98 W/m2
18:24 80.1 °F /  26.7 °C 50.4 °F /  10.2 °C 29.95in /  1014.1hPa NW 1mph /  1.6km/h 9mph /  14.5km/h 35.5% 0.00in /  0mm 95 W/m2
18:29 80.1 °F /  26.7 °C 50.4 °F /  10.2 °C 29.95in /  1014.1hPa NW 1.7mph /  2.7km/h 9mph /  14.5km/h 35.6% 0.00in /  0mm 81 W/m2
18:34 80.1 °F /  26.7 °C 50.7 °F /  10.4 °C 29.95in /  1014.1hPa WNW 1.8mph /  2.9km/h 10mph /  16.1km/h 35.9% 0.00in /  0mm 84 W/m2
18:39 80 °F /  26.7 °C 50.9 °F /  10.5 °C 29.95in /  1014.1hPa NW 1.5mph /  2.4km/h 10mph /  16.1km/h 36.3% 0.00in /  0mm 77 W/m2
18:44 80 °F /  26.7 °C 50.8 °F /  10.4 °C 29.95in /  1014.1hPa NW 2mph /  3.2km/h 10mph /  16.1km/h 36.2% 0.00in /  0mm 69 W/m2
18:49 79.9 °F /  26.6 °C 50.4 °F /  10.2 °C 29.95in /  1014.1hPa NW 0.9mph /  1.4km/h 10mph /  16.1km/h 35.7% 0.00in /  0mm 63 W/m2
18:54 79.9 °F /  26.6 °C 50.7 °F /  10.4 °C 29.95in /  1014.1hPa WNW 0.2mph /  0.3km/h 10mph /  16.1km/h 36.1% 0.00in /  0mm 46 W/m2
18:59 79.8 °F /  26.6 °C 50.8 °F /  10.4 °C 29.95in /  1014.1hPa NW 1.6mph /  2.6km/h 10mph /  16.1km/h 36.5% 0.00in /  0mm 49 W/m2
19:04 79.5 °F /  26.4 °C 50.9 °F /  10.5 °C 29.95in /  1014.1hPa NW 1.4mph /  2.3km/h 10mph /  16.1km/h 36.9% 0.00in /  0mm 49 W/m2
19:09 79.3 °F /  26.3 °C 50.8 °F /  10.4 °C 29.96in /  1014.4hPa NW 0.7mph /  1.1km/h 6mph /  9.7km/h 37% 0.00in /  0mm 42 W/m2
19:14 79.1 °F /  26.2 °C 51 °F /  10.6 °C 29.96in /  1014.4hPa NW 0.7mph /  1.1km/h 6mph /  9.7km/h 37.5% 0.00in /  0mm 33 W/m2
19:19 78.9 °F /  26.1 °C 51 °F /  10.6 °C 29.96in /  1014.4hPa NW 0.1mph /  0.2km/h 6mph /  9.7km/h 37.8% 0.00in /  0mm 33 W/m2
19:24 78.7 °F /  25.9 °C 51 °F /  10.6 °C 29.96in /  1014.4hPa NW 0.6mph /  1km/h 6mph /  9.7km/h 38% 0.00in /  0mm 32 W/m2
19:29 78.4 °F /  25.8 °C 50.8 °F /  10.4 °C 29.96in /  1014.4hPa NNW 0.9mph /  1.4km/h 6mph /  9.7km/h 38.1% 0.00in /  0mm 19 W/m2
19:34 78.2 °F /  25.7 °C 50.7 °F /  10.4 °C 29.97in /  1014.8hPa NNW 0.3mph /  0.5km/h 6mph /  9.7km/h 38.3% 0.00in /  0mm 18 W/m2
19:39 77.9 °F /  25.5 °C 50.7 °F /  10.4 °C 29.97in /  1014.8hPa NNW 0.5mph /  0.8km/h 4mph /  6.4km/h 38.7% 0.00in /  0mm 12 W/m2
19:44 77.6 °F /  25.3 °C 50.7 °F /  10.4 °C 29.97in /  1014.8hPa NW 0.2mph /  0.3km/h 4mph /  6.4km/h 39% 0.00in /  0mm 9 W/m2
19:49 77.3 °F /  25.2 °C 50.7 °F /  10.4 °C 29.97in /  1014.8hPa NW 0.2mph /  0.3km/h 4mph /  6.4km/h 39.4% 0.00in /  0mm 7 W/m2
19:54 77 °F /  25 °C 50.8 °F /  10.4 °C 29.97in /  1014.8hPa NW 0.3mph /  0.5km/h 4mph /  6.4km/h 40% 0.00in /  0mm 5 W/m2
19:59 76.6 °F /  24.8 °C 50.9 °F /  10.5 °C 29.97in /  1014.8hPa NW 0.2mph /  0.3km/h 4mph /  6.4km/h 40.5% 0.00in /  0mm 0 W/m2
20:09 76 °F /  24.4 °C 51 °F /  10.6 °C 29.98in /  1015.1hPa NW 0.1mph /  0.2km/h 2mph /  3.2km/h 41.7% 0.00in /  0mm 0 W/m2
20:14 75.7 °F /  24.3 °C 51.3 °F /  10.7 °C 29.98in /  1015.1hPa NW 0.1mph /  0.2km/h 2mph /  3.2km/h 42.4% 0.00in /  0mm 0 W/m2
20:18 75.5 °F /  24.2 °C 51.4 °F /  10.8 °C 29.98in /  1015.1hPa Calm   2mph /  3.2km/h 43% 0.00in /  0mm 0 W/m2
20:24 75.1 °F /  23.9 °C 51.3 °F /  10.7 °C 29.98in /  1015.1hPa Calm   2mph /  3.2km/h 43.3% 0.00in /  0mm 0 W/m2
20:29 74.8 °F /  23.8 °C 51.4 °F /  10.8 °C 29.98in /  1015.1hPa Calm   2mph /  3.2km/h 43.9% 0.00in /  0mm 0 W/m2
20:34 74.5 °F /  23.6 °C 51.2 °F /  10.7 °C 29.98in /  1015.1hPa Calm   2mph /  3.2km/h 44% 0.00in /  0mm 0 W/m2
20:39 74.3 °F /  23.5 °C 51.4 °F /  10.8 °C 29.98in /  1015.1hPa NW 0.5mph /  0.8km/h 4mph /  6.4km/h 44.7% 0.00in /  0mm 0 W/m2
20:44 74 °F /  23.3 °C 51.3 °F /  10.7 °C 29.99in /  1015.5hPa Calm   4mph /  6.4km/h 45% 0.00in /  0mm 0 W/m2
20:49 73.7 °F /  23.2 °C 51.4 °F /  10.8 °C 29.99in /  1015.5hPa Calm   4mph /  6.4km/h 45.6% 0.00in /  0mm 0 W/m2
20:54 73.4 °F /  23 °C 51.4 °F /  10.8 °C 29.99in /  1015.5hPa Calm   4mph /  6.4km/h 46% 0.00in /  0mm 0 W/m2
20:59 73.2 °F /  22.9 °C 51.5 °F /  10.8 °C 29.99in /  1015.5hPa Calm   4mph /  6.4km/h 46.6% 0.00in /  0mm 0 W/m2
21:04 72.9 °F /  22.7 °C 51.5 °F /  10.8 °C 29.99in /  1015.5hPa Calm   4mph /  6.4km/h 47% 0.00in /  0mm 0 W/m2
21:09 72.6 °F /  22.6 °C 51.4 °F /  10.8 °C 30.00in /  1015.8hPa Calm     47.3% 0.00in /  0mm 0 W/m2
21:14 72.3 °F /  22.4 °C 51.1 °F /  10.6 °C 30.00in /  1015.8hPa NW 0.1mph /  0.2km/h 2mph /  3.2km/h 47.3% 0.00in /  0mm 0 W/m2
21:19 72 °F /  22.2 °C 51.2 °F /  10.7 °C 30.00in /  1015.8hPa Calm   2mph /  3.2km/h 47.8% 0.00in /  0mm 0 W/m2
21:24 71.7 °F /  22.1 °C 51 °F /  10.6 °C 30.00in /  1015.8hPa Calm   2mph /  3.2km/h 48% 0.00in /  0mm 0 W/m2
21:29 71.5 °F /  21.9 °C 50.8 °F /  10.4 °C 30.00in /  1015.8hPa Calm   2mph /  3.2km/h 48% 0.00in /  0mm 0 W/m2
21:34 71.2 °F /  21.8 °C 50.6 °F /  10.3 °C 30.00in /  1015.8hPa Calm   2mph /  3.2km/h 48% 0.00in /  0mm 0 W/m2
21:39 71 °F /  21.7 °C 50.9 °F /  10.5 °C 30.00in /  1015.8hPa Calm     49% 0.00in /  0mm 0 W/m2
21:44 70.8 °F /  21.6 °C 51 °F /  10.6 °C 30.00in /  1015.8hPa Calm     49.6% 0.00in /  0mm 0 W/m2
21:49 70.6 °F /  21.4 °C 51.2 °F /  10.7 °C 30.00in /  1015.8hPa Calm     50.3% 0.00in /  0mm 0 W/m2
21:54 70.4 °F /  21.3 °C 51 °F /  10.6 °C 30.00in /  1015.8hPa Calm     50.2% 0.00in /  0mm 0 W/m2
21:59 70.2 °F /  21.2 °C 50.7 °F /  10.4 °C 30.00in /  1015.8hPa Calm   1mph /  1.6km/h 50% 0.00in /  0mm 0 W/m2
22:04 70 °F /  21.1 °C 50.9 °F /  10.5 °C 30.00in /  1015.8hPa NNW 0.1mph /  0.2km/h 1mph /  1.6km/h 50.7% 0.00in /  0mm 0 W/m2
22:09 69.9 °F /  21.1 °C 51.1 °F /  10.6 °C 30.00in /  1015.8hPa Calm   1mph /  1.6km/h 51.3% 0.00in /  0mm 0 W/m2
22:14 69.7 °F /  20.9 °C 51.3 °F /  10.7 °C 30.00in /  1015.8hPa Calm   1mph /  1.6km/h 52% 0.00in /  0mm 0 W/m2
22:19 69.5 °F /  20.8 °C 51.3 °F /  10.7 °C 30.00in /  1015.8hPa Calm   1mph /  1.6km/h 52.3% 0.00in /  0mm 0 W/m2
22:24 69.4 °F /  20.8 °C 51.4 °F /  10.8 °C 30.00in /  1015.8hPa NW 0.2mph /  0.3km/h 3mph /  4.8km/h 52.7% 0.00in /  0mm 0 W/m2
22:29 69.2 °F /  20.7 °C 51.4 °F /  10.8 °C 30.00in /  1015.8hPa Calm   3mph /  4.8km/h 53% 0.00in /  0mm 0 W/m2
22:34 69.1 °F /  20.6 °C 51.2 °F /  10.7 °C 30.00in /  1015.8hPa NW 0.1mph /  0.2km/h 3mph /  4.8km/h 53% 0.00in /  0mm 0 W/m2
22:39 68.9 °F /  20.5 °C 51.1 °F /  10.6 °C 30.00in /  1015.8hPa Calm   1mph /  1.6km/h 53% 0.00in /  0mm 0 W/m2
22:44 68.7 °F /  20.4 °C 51.4 °F /  10.8 °C 30.00in /  1015.8hPa NW 0.1mph /  0.2km/h 1mph /  1.6km/h 54% 0.00in /  0mm 0 W/m2
22:49 68.5 °F /  20.3 °C 51.4 °F /  10.8 °C 30.00in /  1015.8hPa NW 0.1mph /  0.2km/h 1mph /  1.6km/h 54.5% 0.00in /  0mm 0 W/m2
22:54 68.2 °F /  20.1 °C 51.2 °F /  10.7 °C 30.00in /  1015.8hPa Calm   1mph /  1.6km/h 54.4% 0.00in /  0mm 0 W/m2
22:59 68.1 °F /  20.1 °C 51.1 °F /  10.6 °C 30.01in /  1016.1hPa Calm   1mph /  1.6km/h 54.5% 0.00in /  0mm 0 W/m2
23:04 67.9 °F /  19.9 °C 50.7 °F /  10.4 °C 30.01in /  1016.1hPa Calm   1mph /  1.6km/h 54% 0.00in /  0mm 0 W/m2
23:09 67.8 °F /  19.9 °C 50.9 °F /  10.5 °C 30.01in /  1016.1hPa Calm     54.8% 0.00in /  0mm 0 W/m2
23:14 67.6 °F /  19.8 °C 50.9 °F /  10.5 °C 30.01in /  1016.1hPa Calm     55% 0.00in /  0mm 0 W/m2
23:19 67.5 °F /  19.7 °C 50.8 °F /  10.4 °C 30.01in /  1016.1hPa Calm     55% 0.00in /  0mm 0 W/m2
23:24 67.4 °F /  19.7 °C 50.7 °F /  10.4 °C 30.01in /  1016.1hPa Calm     55% 0.00in /  0mm 0 W/m2
23:29 67.3 °F /  19.6 °C 50.6 °F /  10.3 °C 30.01in /  1016.1hPa Calm     55% 0.00in /  0mm 0 W/m2
23:34 67.2 °F /  19.6 °C 50.6 °F /  10.3 °C 30.01in /  1016.1hPa Calm     55.2% 0.00in /  0mm 0 W/m2
23:39 67.1 °F /  19.5 °C 50.5 °F /  10.3 °C 30.01in /  1016.1hPa Calm     55.1% 0.00in /  0mm 0 W/m2
23:44 67 °F /  19.4 °C 50.3 °F /  10.2 °C 30.01in /  1016.1hPa Calm     55% 0.00in /  0mm 0 W/m2
23:49 66.9 °F /  19.4 °C 50.6 °F /  10.3 °C 30.01in /  1016.1hPa Calm     55.7% 0.00in /  0mm 0 W/m2
23:54 66.8 °F /  19.3 °C 50.6 °F /  10.3 °C 30.01in /  1016.1hPa Calm     56% 0.00in /  0mm 0 W/m2
23:59 66.7 °F /  19.3 °C 50.5 °F /  10.3 °C 30.01in /  1016.1hPa NNW 0.1mph /  0.2km/h 2mph /  3.2km/h 56% 0.00in /  0mm 0 W/m2
Hartford County Weather
Compliments of Weather Underground - 2 mb